Time;durP1;ratioP1;P1;durP2;ratioP2;P2;SDS_P1;SDS_P2;PMS_P1;PMS_P2;Temp;Humidity;BMP_temperature;BMP_pressure;BME280_temperature;BME280_humidity;BME280_pressure;Samples;Min_cycle;Max_cycle;Signal;HPM_P1;HPM_P2
2021/12/17 00:05:06;;;;;;;242.70;37.95;;;;;;;7.43;100.00;103681.28;4954354;28;20038;-77
2021/12/17 00:07:35;;;;;;;261.38;37.65;;;;;;;7.46;100.00;103681.25;4947018;28;20045;-77
2021/12/17 00:10:23;;;;;;;251.70;37.50;;;;;;;7.32;100.00;103681.50;4953497;28;20448;-77
2021/12/17 00:12:51;;;;;;;225.20;34.65;;;;;;;7.33;100.00;103685.16;4948789;28;20463;-77
2021/12/17 00:15:17;;;;;;;245.82;35.47;;;;;;;7.38;100.00;103675.03;4953670;28;20078;-77
2021/12/17 00:17:53;;;;;;;239.55;36.33;;;;;;;7.34;100.00;103686.91;4969203;28;20034;-77
2021/12/17 00:53:09;;;;;;;258.17;37.60;;;;;;;7.36;100.00;103674.16;4954988;28;20102;-77
2021/12/17 00:55:35;;;;;;;278.35;37.25;;;;;;;7.41;100.00;103672.25;4938500;28;20158;-77
2021/12/17 00:58:00;;;;;;;249.07;36.42;;;;;;;7.39;100.00;103662.31;4953277;28;20034;-77
2021/12/17 01:00:26;;;;;;;265.35;37.50;;;;;;;7.38;100.00;103668.66;4951842;29;20031;-77
2021/12/17 01:02:52;;;;;;;278.98;38.03;;;;;;;7.34;100.00;103655.09;4953417;28;20046;-76
2021/12/17 01:05:24;;;;;;;314.45;39.72;;;;;;;7.30;100.00;103655.22;4953894;28;20031;-77
2021/12/17 01:07:53;;;;;;;287.37;35.97;;;;;;;7.35;100.00;103653.31;4952008;29;20387;-77
2021/12/17 01:10:24;;;;;;;256.38;36.30;;;;;;;7.32;100.00;103650.63;4952804;28;20047;-77
2021/12/17 01:12:50;;;;;;;325.00;39.67;;;;;;;7.33;100.00;103655.16;4952037;28;20398;-77
2021/12/17 01:15:18;;;;;;;319.25;38.28;;;;;;;7.35;100.00;103653.31;4953963;29;20027;-77
2021/12/17 01:17:47;;;;;;;341.17;39.97;;;;;;;7.33;100.00;103647.88;4953228;28;20460;-77
2021/12/17 01:20:34;;;;;;;313.55;40.97;;;;;;;7.35;100.00;103647.84;4956244;28;20031;-77
2021/12/17 01:23:19;;;;;;;290.08;40.75;;;;;;;7.35;100.00;103640.56;4956892;28;20039;-77
2021/12/17 01:36:46;;;;;;;339.10;41.40;;;;;;;7.34;100.00;103641.47;4956949;29;20042;-76
2021/12/17 01:42:01;;;;;;;291.50;40.38;;;;;;;7.32;100.00;103639.72;4955634;29;20035;-77
2021/12/17 01:44:27;;;;;;;338.00;43.10;;;;;;;7.34;100.00;103635.13;4950438;29;20039;-77
2021/12/17 01:46:53;;;;;;;354.02;42.53;;;;;;;7.30;100.00;103627.97;4956728;28;20363;-77
2021/12/17 01:55:48;;;;;;;317.73;41.60;;;;;;;7.31;100.00;103640.66;4955536;29;20042;-77
2021/12/17 02:00:42;;;;;;;342.00;40.25;;;;;;;7.32;100.00;103639.72;4950180;29;20133;-77
2021/12/17 02:03:08;;;;;;;328.10;42.58;;;;;;;7.30;100.00;103639.75;4956154;28;20042;-76
2021/12/17 02:05:35;;;;;;;341.02;41.85;;;;;;;7.28;100.00;103636.19;4955015;28;20565;-77
2021/12/17 02:08:01;;;;;;;321.85;39.83;;;;;;;7.25;100.00;103644.41;4956288;28;20130;-77
2021/12/17 02:21:52;;;;;;;379.48;41.38;;;;;;;7.23;100.00;103640.81;4955133;28;20090;-77
2021/12/17 02:32:14;;;;;;;390.13;42.33;;;;;;;7.24;100.00;103653.50;4953677;28;20119;-77
2021/12/17 02:37:25;;;;;;;416.65;45.22;;;;;;;7.22;100.00;103646.31;4955840;28;20074;-76
2021/12/17 02:42:30;;;;;;;413.65;41.08;;;;;;;7.22;100.00;103649.03;4955536;28;20102;-76
2021/12/17 02:45:32;;;;;;;309.55;38.38;;;;;;;7.27;100.00;103650.72;4960245;28;21780;-76
2021/12/17 02:45:36;;;;;;;303.88;38.30;;;;;;;7.19;100.00;103658.16;4954069;28;20042;-76
2021/12/17 02:48:20;;;;;;;258.75;37.05;;;;;;;7.21;100.00;103664.44;4952121;28;20106;-77
2021/12/17 02:50:52;;;;;;;266.42;34.63;;;;;;;7.23;100.00;103667.16;4954078;29;20171;-77
2021/12/17 02:53:19;;;;;;;261.42;37.67;;;;;;;7.23;100.00;103664.44;4955335;28;20403;-77
2021/12/17 02:55:51;;;;;;;235.55;35.85;;;;;;;7.22;100.00;103666.25;4969751;28;20024;-77
2021/12/17 02:58:18;;;;;;;263.45;36.25;;;;;;;7.27;100.00;103668.91;4954878;28;20047;-77
2021/12/17 03:00:44;;;;;;;327.75;36.75;;;;;;;7.22;100.00;103670.81;4954329;28;20031;-77
2021/12/17 03:03:11;;;;;;;285.40;34.08;;;;;;;7.20;100.00;103661.75;4949015;28;20110;-77
2021/12/17 03:05:39;;;;;;;299.08;35.50;;;;;;;7.22;100.00;103665.38;4954063;28;20039;-77
2021/12/17 03:08:12;;;;;;;276.92;33.58;;;;;;;7.21;100.00;103667.19;4952624;29;20050;-77
2021/12/17 03:10:38;;;;;;;260.88;32.30;;;;;;;7.28;100.00;103674.31;4952664;28;20093;-77
2021/12/17 03:13:04;;;;;;;213.38;31.63;;;;;;;7.29;100.00;103667.03;4954559;28;20107;-77
2021/12/17 03:23:51;;;;;;;219.73;31.98;;;;;;;7.21;100.00;103655.41;4952667;29;20122;-77
2021/12/17 03:26:20;;;;;;;270.55;33.53;;;;;;;7.29;100.00;103657.03;4949286;29;20181;-76
2021/12/17 03:28:51;;;;;;;292.15;33.60;;;;;;;7.31;100.00;103657.91;4952263;28;20525;-75
2021/12/17 03:31:18;;;;;;;285.40;32.10;;;;;;;7.25;100.00;103666.22;4952453;28;20031;-76
2021/12/17 03:33:45;;;;;;;274.42;34.25;;;;;;;7.24;100.00;103667.13;4950009;28;20035;-76
2021/12/17 03:36:14;;;;;;;262.45;29.85;;;;;;;7.20;100.00;103661.75;4950737;29;20106;-76
2021/12/17 03:38:43;;;;;;;262.90;31.75;;;;;;;7.18;100.00;103662.72;4954895;28;20035;-76
2021/12/17 03:41:20;;;;;;;271.05;31.95;;;;;;;7.21;100.00;103659.00;4953541;28;20042;-76
2021/12/17 03:43:50;;;;;;;255.75;30.98;;;;;;;7.25;100.00;103668.03;4954610;28;20062;-76
2021/12/17 03:46:17;;;;;;;233.65;30.75;;;;;;;7.25;100.00;103663.47;4953379;28;20031;-76
2021/12/17 03:48:43;;;;;;;269.90;30.63;;;;;;;7.20;100.00;103662.69;4954011;28;20034;-76
2021/12/17 03:51:15;;;;;;;202.63;28.85;;;;;;;7.32;100.00;103662.41;4954594;28;20442;-76
2021/12/17 03:53:44;;;;;;;336.63;33.17;;;;;;;7.23;100.00;103654.44;4952814;28;20023;-76
2021/12/17 03:56:09;;;;;;;245.00;30.50;;;;;;;7.20;100.00;103650.84;4968089;28;20131;-76
2021/12/17 03:58:35;;;;;;;247.23;28.52;;;;;;;7.23;100.00;103657.19;4952934;28;20114;-76
2021/12/17 04:01:01;;;;;;;292.00;31.67;;;;;;;7.25;100.00;103654.41;4954076;29;20122;-76
2021/12/17 04:03:26;;;;;;;318.65;30.48;;;;;;;7.29;100.00;103648.84;4954399;28;20467;-76
2021/12/17 04:05:52;;;;;;;317.58;31.83;;;;;;;7.25;100.00;103641.69;4954284;28;20476;-76
2021/12/17 04:08:17;;;;;;;382.15;31.77;;;;;;;7.22;100.00;103643.56;4953858;28;20035;-76
2021/12/17 04:10:47;;;;;;;370.50;32.88;;;;;;;7.20;100.00;103649.06;4951094;28;20122;-76
2021/12/17 04:15:55;;;;;;;325.58;28.25;;;;;;;7.18;100.00;103664.50;4954724;28;20027;-76
2021/12/17 04:18:20;;;;;;;381.27;30.38;;;;;;;7.14;100.00;103650.06;4952374;28;20042;-76
2021/12/17 04:20:45;;;;;;;369.13;31.02;;;;;;;7.13;100.00;103656.47;4952615;28;20039;-76
2021/12/17 04:23:12;;;;;;;335.75;31.35;;;;;;;7.13;100.00;103645.56;4953509;28;20089;-76
2021/12/17 04:25:38;;;;;;;323.00;30.83;;;;;;;7.14;100.00;103641.88;4953093;28;20043;-76
2021/12/17 04:28:04;;;;;;;294.35;28.25;;;;;;;7.11;100.00;103643.78;4968849;28;20071;-77
2021/12/17 04:30:30;;;;;;;324.80;29.52;;;;;;;7.06;100.00;103643.84;4969043;28;20050;-77
2021/12/17 04:32:56;;;;;;;288.42;28.00;;;;;;;7.05;100.00;103647.53;4953225;28;20499;-77
2021/12/17 04:35:22;;;;;;;311.35;27.65;;;;;;;7.07;100.00;103651.13;4953764;28;20051;-77
2021/12/17 04:37:47;;;;;;;270.92;26.23;;;;;;;7.04;100.00;103643.00;4953881;28;20046;-77
2021/12/17 04:40:13;;;;;;;287.60;27.23;;;;;;;7.11;100.00;103651.94;4954197;28;20035;-77
2021/12/17 04:45:07;;;;;;;342.27;28.92;;;;;;;7.06;100.00;103649.31;4954353;28;20093;-77
2021/12/17 04:58:29;;;;;;;246.45;26.20;;;;;;;7.04;100.00;103637.56;4958213;28;20497;-77
2021/12/17 05:00:55;;;;;;;283.90;29.30;;;;;;;7.05;100.00;103643.88;4959124;28;20047;-77
2021/12/17 05:03:21;;;;;;;303.60;29.58;;;;;;;7.05;100.00;103641.16;4958787;28;20058;-77
2021/12/17 05:05:47;;;;;;;333.52;27.02;;;;;;;7.07;100.00;103648.41;4960309;28;20031;-77
2021/12/17 05:08:16;;;;;;;282.00;26.83;;;;;;;7.09;100.00;103645.63;4958597;28;20086;-77
2021/12/17 05:10:59;;;;;;;299.20;28.20;;;;;;;7.11;100.00;103652.84;4974689;28;20051;-77
2021/12/17 05:21:18;;;;;;;264.73;28.50;;;;;;;7.07;100.00;103656.56;4959802;28;20035;-77
2021/12/17 05:23:44;;;;;;;274.25;26.95;;;;;;;7.08;100.00;103655.63;4960335;28;20031;-77
2021/12/17 05:26:12;;;;;;;213.40;24.65;;;;;;;7.05;100.00;103647.53;4958923;28;20050;-76
2021/12/17 05:28:38;;;;;;;308.75;25.80;;;;;;;7.03;100.00;103643.91;4958845;28;20043;-77
2021/12/17 05:31:04;;;;;;;344.60;28.02;;;;;;;6.99;100.00;103648.53;4963086;28;20442;-76
2021/12/17 05:33:30;;;;;;;294.90;27.52;;;;;;;7.05;100.00;103649.34;4963138;28;20027;-76
2021/12/17 05:35:56;;;;;;;313.08;27.65;;;;;;;7.04;100.00;103653.91;4963460;28;20556;-76
2021/12/17 05:38:24;;;;;;;243.25;25.95;;;;;;;7.05;100.00;103654.78;4979755;28;20031;-76
2021/12/17 05:40:50;;;;;;;255.35;26.20;;;;;;;7.06;100.00;103662.94;4961933;28;20054;-77
2021/12/17 05:43:16;;;;;;;301.05;26.73;;;;;;;6.99;100.00;103659.41;4943458;28;20037;-77
2021/12/17 05:48:26;;;;;;;225.95;25.52;;;;;;;7.00;100.00;103654.88;4963578;28;20045;-77
2021/12/17 05:50:55;;;;;;;252.55;25.17;;;;;;;7.00;100.00;103654.88;4960302;28;20023;-76
2021/12/17 05:53:23;;;;;;;241.80;26.08;;;;;;;7.06;100.00;103662.94;4950102;28;20100;-76
2021/12/17 05:55:49;;;;;;;248.98;25.17;;;;;;;7.09;100.00;103659.25;4966298;28;20030;-76
2021/12/17 05:58:14;;;;;;;242.38;23.63;;;;;;;7.04;100.00;103658.47;4941866;29;20544;-77
2021/12/17 06:00:41;;;;;;;246.95;23.40;;;;;;;6.99;100.00;103664.88;4958267;28;20472;-76
2021/12/17 06:03:08;;;;;;;220.68;27.55;;;;;;;6.97;100.00;103646.78;4966297;28;20050;-76
2021/12/17 06:05:33;;;;;;;267.80;25.65;;;;;;;7.02;100.00;103657.56;4969494;28;20529;-76
2021/12/17 06:07:59;;;;;;;299.40;25.67;;;;;;;7.01;100.00;103655.78;4954482;28;20122;-77
2021/12/17 06:10:24;;;;;;;249.07;26.48;;;;;;;7.01;100.00;103662.13;4955232;28;20392;-76
2021/12/17 06:12:50;;;;;;;274.25;25.85;;;;;;;7.06;100.00;103662.03;4954520;29;20039;-77
2021/12/17 06:15:19;;;;;;;296.85;28.60;;;;;;;7.03;100.00;103664.81;4970718;28;20051;-76
2021/12/17 06:17:45;;;;;;;295.80;26.52;;;;;;;7.00;100.00;103663.03;4955483;28;20043;-76
2021/12/17 06:20:13;;;;;;;273.83;25.95;;;;;;;7.04;100.00;103669.34;4955153;28;20039;-77
2021/12/17 06:22:38;;;;;;;279.73;25.98;;;;;;;7.00;100.00;103665.75;4968285;28;20035;-77
2021/12/17 06:25:06;;;;;;;260.65;28.65;;;;;;;7.03;100.00;103676.59;4935309;28;20055;-76
2021/12/17 06:27:32;;;;;;;261.23;25.63;;;;;;;7.04;100.00;103672.06;4950626;28;20383;-76
2021/12/17 06:29:58;;;;;;;258.73;25.60;;;;;;;7.06;100.00;103675.66;4950245;28;20036;-76
2021/12/17 06:32:25;;;;;;;216.27;23.20;;;;;;;7.02;100.00;103674.81;4949470;28;20042;-77
2021/12/17 06:34:50;;;;;;;310.75;23.50;;;;;;;6.98;100.00;103675.78;4966392;28;20407;-77
2021/12/17 06:37:17;;;;;;;248.90;23.85;;;;;;;7.06;100.00;103676.56;4953182;29;20036;-76
2021/12/17 06:39:43;;;;;;;215.77;23.85;;;;;;;6.99;100.00;103672.16;4947941;29;20039;-76
2021/12/17 06:42:10;;;;;;;218.75;21.48;;;;;;;6.97;100.00;103677.63;4953212;28;20419;-76
2021/12/17 06:44:37;;;;;;;236.52;22.05;;;;;;;7.00;100.00;103693.00;4953208;28;20039;-77
2021/12/17 06:55:05;;;;;;;147.05;20.10;;;;;;;7.04;100.00;103674.81;4969192;28;20039;-76
2021/12/17 07:00:37;;;;;;;170.40;19.42;;;;;;;6.95;100.00;103668.59;4954283;29;20546;-76
2021/12/17 07:11:23;;;;;;;155.45;18.10;;;;;;;6.97;100.00;103677.63;4969673;28;20047;-77
2021/12/17 07:35:12;;;;;;;152.93;21.25;;;;;;;7.04;100.00;103677.53;4954544;28;20028;-76
2021/12/17 07:39:52;;;;;;;161.63;19.42;;;;;;;7.05;100.00;103682.03;4953518;28;20046;-76
2021/12/17 07:42:18;;;;;;;161.80;20.17;;;;;;;7.02;100.00;103683.00;4969218;28;20105;-76
2021/12/17 07:44:43;;;;;;;159.10;19.92;;;;;;;7.01;100.00;103673.00;4950583;28;20039;-74
2021/12/17 07:47:09;;;;;;;148.38;20.08;;;;;;;7.01;100.00;103666.69;4968769;28;20119;-75
2021/12/17 07:49:34;;;;;;;168.55;21.73;;;;;;;7.03;100.00;103664.81;4945541;28;20102;-76
2021/12/17 07:52:00;;;;;;;153.68;19.77;;;;;;;7.04;100.00;103667.50;4957842;28;20043;-78
2021/12/17 07:54:25;;;;;;;147.05;19.58;;;;;;;7.03;100.00;103665.69;4954627;28;20051;-77
2021/12/17 07:56:51;;;;;;;130.32;19.42;;;;;;;7.09;100.00;103670.16;4958062;28;20468;-78
2021/12/17 07:59:17;;;;;;;145.88;20.23;;;;;;;7.09;100.00;103676.50;4957579;29;20046;-80
2021/12/17 08:01:44;;;;;;;178.75;20.65;;;;;;;7.05;100.00;103669.31;4952498;29;20032;-78
2021/12/17 08:04:10;;;;;;;159.18;21.60;;;;;;;7.05;100.00;103674.78;4969317;28;20375;-78
2021/12/17 08:06:36;;;;;;;138.77;19.88;;;;;;;7.13;100.00;103682.78;4953398;28;20109;-79
2021/12/17 08:09:06;;;;;;;173.77;22.17;;;;;;;7.07;100.00;103688.38;4953028;29;20042;-79
2021/12/17 08:11:37;;;;;;;160.80;22.52;;;;;;;7.03;100.00;103684.78;4957362;29;20051;-79
2021/12/17 08:14:06;;;;;;;165.90;22.88;;;;;;;7.04;100.00;103677.53;4954374;28;20031;-79
2021/12/17 08:16:40;;;;;;;168.77;19.65;;;;;;;7.07;100.00;103674.75;4957199;28;20035;-79
2021/12/17 08:23:20;;;;;;;146.05;19.33;;;;;;;7.08;100.00;103680.13;4971584;28;20135;-79
2021/12/17 08:32:01;;;;;;;137.10;17.90;;;;;;;7.14;100.00;103687.31;4956872;28;20031;-79
2021/12/17 08:34:27;;;;;;;142.55;17.92;;;;;;;7.16;100.00;103686.34;4956083;29;20027;-79
2021/12/17 08:36:53;;;;;;;120.03;16.88;;;;;;;7.16;100.00;103685.44;4949564;29;20058;-79
2021/12/17 08:39:18;;;;;;;114.55;17.00;;;;;;;7.20;100.00;103683.56;4956550;28;20047;-79
2021/12/17 08:41:49;;;;;;;123.63;17.20;;;;;;;7.19;100.00;103693.56;4956333;28;20039;-79
2021/12/17 08:44:15;;;;;;;119.18;16.20;;;;;;;7.18;100.00;103698.13;4954393;29;20510;-79
2021/12/17 08:46:41;;;;;;;102.07;15.88;;;;;;;7.21;100.00;103699.88;4971040;28;20069;-79
2021/12/17 08:49:06;;;;;;;106.38;15.75;;;;;;;7.27;100.00;103698.88;4956360;29;20035;-79
2021/12/17 08:51:32;;;;;;;102.28;15.30;;;;;;;7.23;100.00;103703.50;4972597;28;20051;-79
2021/12/17 08:53:58;;;;;;;120.78;16.73;;;;;;;7.13;100.00;103704.56;4956581;29;20131;-79
2021/12/17 08:56:35;;;;;;;116.95;16.90;;;;;;;7.23;100.00;103710.75;4957194;28;20186;-79
2021/12/17 08:59:04;;;;;;;116.40;16.02;;;;;;;7.23;100.00;103708.94;4956318;28;20101;-78
2021/12/17 09:01:29;;;;;;;91.47;15.90;;;;;;;7.33;100.00;103709.69;4958145;28;20031;-79
2021/12/17 09:03:55;;;;;;;94.55;16.60;;;;;;;7.28;100.00;103701.59;4978072;28;20031;-79
2021/12/17 09:06:26;;;;;;;85.47;15.57;;;;;;;7.37;100.00;103708.66;4964628;28;20038;-79
2021/12/17 09:08:54;;;;;;;128.45;15.38;;;;;;;7.31;100.00;103717.88;4955788;28;20066;-79
2021/12/17 09:11:22;;;;;;;119.20;16.77;;;;;;;7.29;100.00;103716.97;4955646;29;20411;-79
2021/12/17 09:13:48;;;;;;;98.88;15.85;;;;;;;7.38;100.00;103720.47;4955681;28;20031;-79
2021/12/17 09:16:14;;;;;;;81.13;13.90;;;;;;;7.40;100.00;103730.41;4956993;29;20028;-79
2021/12/17 09:18:40;;;;;;;73.78;13.38;;;;;;;7.44;100.00;103726.69;4957074;29;20046;-78
2021/12/17 09:21:06;;;;;;;70.95;12.65;;;;;;;7.54;100.00;103736.50;4957270;28;20039;-78
2021/12/17 09:23:31;;;;;;;101.38;14.10;;;;;;;7.35;100.00;103738.69;4956482;29;20035;-79
2021/12/17 09:25:57;;;;;;;85.72;14.45;;;;;;;7.29;100.00;103743.34;4954707;29;20552;-77
2021/12/17 09:28:22;;;;;;;77.65;14.93;;;;;;;7.27;100.00;103739.75;4957062;28;20031;-78
2021/12/17 09:30:48;;;;;;;77.90;13.77;;;;;;;7.35;100.00;103737.78;4957091;28;20046;-79
2021/12/17 09:33:13;;;;;;;99.30;13.75;;;;;;;7.25;100.00;103725.28;4956357;28;20081;-79
2021/12/17 09:35:39;;;;;;;82.35;13.32;;;;;;;7.26;100.00;103727.94;4975957;28;20079;-79
2021/12/17 09:38:04;;;;;;;84.53;13.43;;;;;;;7.26;100.00;103727.06;4955695;28;20070;-80
2021/12/17 09:40:30;;;;;;;104.40;14.30;;;;;;;7.31;100.00;103726.06;4952124;28;20027;-80
2021/12/17 09:42:55;;;;;;;93.53;13.95;;;;;;;7.39;100.00;103720.44;4956815;28;20043;-79
2021/12/17 09:45:21;;;;;;;85.30;15.15;;;;;;;7.48;100.00;103736.63;4954665;29;20039;-80
2021/12/17 09:47:47;;;;;;;103.60;14.02;;;;;;;7.36;100.00;103739.56;4960711;28;20035;-80
2021/12/17 09:50:15;;;;;;;95.22;15.00;;;;;;;7.35;100.00;103740.50;4960961;28;20035;-80
2021/12/17 09:52:41;;;;;;;93.40;14.50;;;;;;;7.42;100.00;103746.75;4959638;29;20546;-80
2021/12/17 09:55:07;;;;;;;82.07;15.85;;;;;;;7.44;100.00;103758.50;4960359;28;20074;-80
2021/12/17 09:57:36;;;;;;;94.07;14.63;;;;;;;7.34;100.00;103746.88;4955249;29;20075;-80
2021/12/17 10:00:16;;;;;;;87.40;14.70;;;;;;;7.38;100.00;103748.63;4954841;29;20035;-80
2021/12/17 10:02:44;;;;;;;83.00;16.85;;;;;;;7.40;100.00;103756.78;4961005;28;20046;-80
2021/12/17 10:05:13;;;;;;;93.90;16.25;;;;;;;7.45;100.00;103747.59;4942380;28;20476;-81
2021/12/17 10:07:41;;;;;;;104.15;17.17;;;;;;;7.45;100.00;103758.47;4959792;29;20486;-81
2021/12/17 10:10:07;;;;;;;95.90;17.20;;;;;;;7.36;100.00;103739.56;4959151;28;20106;-81
2021/12/17 10:12:35;;;;;;;84.70;15.02;;;;;;;7.60;100.00;103759.13;4976393;28;20114;-81
2021/12/17 10:15:07;;;;;;;82.20;15.77;;;;;;;7.63;100.00;103756.34;4962399;28;20027;-81
2021/12/17 10:17:52;;;;;;;72.63;15.67;;;;;;;7.59;100.00;103760.03;4975198;28;20098;-82
2021/12/17 10:20:18;;;;;;;73.65;13.48;;;;;;;7.63;100.00;103761.78;4972891;28;20028;-81
2021/12/17 10:22:45;;;;;;;75.10;15.55;;;;;;;7.60;100.00;103765.47;4938293;29;20384;-81
2021/12/17 10:25:11;;;;;;;91.05;14.80;;;;;;;7.63;100.00;103769.97;4947656;29;20039;-81
2021/12/17 10:27:39;;;;;;;70.03;12.88;;;;;;;7.64;100.00;103766.28;4942998;28;20035;-82
2021/12/17 10:30:18;;;;;;;78.70;14.18;;;;;;;7.60;100.00;103773.66;4958995;29;20031;-80
2021/12/17 10:32:46;;;;;;;76.63;14.68;;;;;;;7.63;100.00;103762.69;4960896;29;20035;-80
2021/12/17 10:35:17;;;;;;;75.40;14.57;;;;;;;7.64;100.00;103767.22;4960943;28;20035;-79
2021/12/17 10:37:52;;;;;;;81.90;14.88;;;;;;;7.61;100.00;103769.09;4960123;28;20118;-79
2021/12/17 10:40:22;;;;;;;96.57;16.95;;;;;;;7.55;100.00;103765.56;4961922;28;20031;-80
2021/12/17 10:43:02;;;;;;;108.10;17.10;;;;;;;7.53;100.00;103761.06;4946888;29;20031;-80
2021/12/17 10:45:32;;;;;;;112.78;19.23;;;;;;;7.53;100.00;103770.16;4938887;29;20301;-80
2021/12/17 10:51:08;;;;;;;111.13;19.48;;;;;;;7.53;100.00;103767.41;4959874;28;20039;-79
2021/12/17 10:53:34;;;;;;;124.50;19.95;;;;;;;7.50;100.00;103770.19;4974766;28;20094;-80
2021/12/17 10:56:00;;;;;;;124.43;20.83;;;;;;;7.49;100.00;103779.31;4957193;28;20419;-80
2021/12/17 10:58:26;;;;;;;127.43;21.30;;;;;;;7.49;100.00;103778.41;4957798;28;20398;-80
2021/12/17 11:01:05;;;;;;;113.38;20.25;;;;;;;7.52;100.00;103773.78;4941462;29;20059;-80
2021/12/17 11:03:43;;;;;;;103.45;18.58;;;;;;;7.60;100.00;103760.00;4950302;29;20038;-80
2021/12/17 11:06:08;;;;;;;114.55;18.45;;;;;;;7.54;100.00;103760.13;4957190;29;20039;-80
2021/12/17 11:08:37;;;;;;;101.07;19.10;;;;;;;7.74;100.00;103759.75;4949787;28;20080;-81
2021/12/17 11:11:12;;;;;;;85.68;17.58;;;;;;;7.74;100.00;103765.22;4961654;28;20051;-82
2021/12/17 11:13:53;;;;;;;113.20;20.10;;;;;;;7.65;100.00;103759.94;4941065;29;20042;-81
2021/12/17 11:16:20;;;;;;;103.75;18.70;;;;;;;7.62;100.00;103749.97;4957954;28;20511;-81
2021/12/17 11:18:49;;;;;;;93.47;18.27;;;;;;;7.72;100.00;103748.88;4970455;28;20038;-82
2021/12/17 11:21:15;;;;;;;95.78;17.98;;;;;;;7.74;100.00;103743.38;4972420;28;20015;-81
2021/12/17 11:23:41;;;;;;;82.70;17.88;;;;;;;7.82;100.00;103752.31;4958484;28;20031;-81
2021/12/17 11:26:07;;;;;;;87.35;19.48;;;;;;;7.88;100.00;103754.88;4970390;28;20102;-80
2021/12/17 11:28:33;;;;;;;108.10;18.60;;;;;;;7.73;100.00;103753.38;4972514;28;20535;-80
2021/12/17 11:30:58;;;;;;;83.18;17.35;;;;;;;7.83;100.00;103750.47;4942942;29;20059;-81
2021/12/17 11:33:25;;;;;;;85.32;18.45;;;;;;;7.70;100.00;103717.97;4953968;29;20045;-81
2021/12/17 11:35:51;;;;;;;76.43;17.35;;;;;;;7.93;100.00;103740.28;4952701;28;20053;-81
2021/12/17 11:38:28;;;;;;;76.78;17.33;;;;;;;7.88;100.00;103740.38;4950267;29;20059;-80
2021/12/17 11:41:06;;;;;;;75.78;16.13;;;;;;;7.84;100.00;103738.66;4953070;28;20098;-81
2021/12/17 11:43:51;;;;;;;79.15;15.95;;;;;;;7.81;100.00;103725.06;4969955;28;20087;-81
2021/12/17 11:46:29;;;;;;;70.28;15.80;;;;;;;7.89;100.00;103734.88;4956730;29;20085;-81
2021/12/17 11:49:11;;;;;;;69.25;14.77;;;;;;;7.86;100.00;103731.31;4955225;29;20031;-81
2021/12/17 11:51:37;;;;;;;58.25;13.57;;;;;;;7.89;100.00;103723.06;4957276;28;20525;-81
2021/12/17 11:54:14;;;;;;;56.95;13.77;;;;;;;7.89;100.00;103729.41;4940338;29;20042;-80
2021/12/17 11:56:54;;;;;;;60.47;13.93;;;;;;;7.88;100.00;103732.19;4971431;28;20067;-80
2021/12/17 11:59:26;;;;;;;50.13;12.43;;;;;;;7.94;100.00;103737.50;4956151;28;20031;-80
2021/12/17 12:02:08;;;;;;;47.55;12.32;;;;;;;7.85;100.00;103738.59;4972588;28;20760;-79
2021/12/17 12:04:33;;;;;;;60.28;15.10;;;;;;;7.88;100.00;103738.53;4954442;28;20031;-80
2021/12/17 12:07:07;;;;;;;42.85;12.32;;;;;;;7.94;100.00;103736.63;4953397;28;20464;-80
2021/12/17 12:09:58;;;;;;;43.15;11.30;;;;;;;8.00;100.00;103739.19;4971063;28;20046;-79
2021/12/17 12:12:50;;;;;;;38.85;10.77;;;;;;;8.07;100.00;103733.56;4976246;28;20042;-80
2021/12/17 12:15:27;;;;;;;40.00;11.18;;;;;;;8.00;100.00;103742.84;4951165;28;20093;-80
2021/12/17 12:18:07;;;;;;;39.55;10.52;;;;;;;8.02;100.00;103737.34;4972152;28;20098;-81
2021/12/17 12:20:46;;;;;;;49.72;12.20;;;;;;;8.01;100.00;103736.44;4954024;28;20036;-80
2021/12/17 12:23:31;;;;;;;44.60;11.90;;;;;;;8.05;100.00;103724.53;4953952;29;20039;-80
2021/12/17 12:26:02;;;;;;;55.78;12.32;;;;;;;8.00;100.00;103726.47;4952296;29;20046;-81
2021/12/17 12:28:46;;;;;;;39.20;11.50;;;;;;;8.01;100.00;103730.97;4953629;29;20031;-80
2021/12/17 12:31:24;;;;;;;40.53;12.15;;;;;;;8.02;100.00;103730.06;4935459;29;20039;-81
2021/12/17 12:34:06;;;;;;;44.50;11.20;;;;;;;7.98;100.00;103721.97;4955471;28;20027;-81
2021/12/17 12:37:09;;;;;;;38.28;11.25;;;;;;;7.98;100.00;103717.41;4954612;29;20470;-80
2021/12/17 12:40:00;;;;;;;37.93;11.03;;;;;;;8.08;100.00;103721.75;4953345;29;20475;-81
2021/12/17 12:42:29;;;;;;;33.97;9.77;;;;;;;8.02;100.00;103713.69;4953194;28;20653;-80
2021/12/17 12:44:55;;;;;;;31.27;9.90;;;;;;;8.11;100.00;103712.56;4954394;29;20035;-80
2021/12/17 12:47:20;;;;;;;27.85;10.05;;;;;;;8.08;100.00;103713.56;4969208;28;20039;-81
2021/12/17 12:49:49;;;;;;;27.05;9.65;;;;;;;7.91;100.00;103713.91;4953790;29;20031;-81
2021/12/17 12:52:31;;;;;;;27.92;9.70;;;;;;;8.03;100.00;103717.31;4964875;28;20554;-81
2021/12/17 12:55:00;;;;;;;30.08;9.55;;;;;;;8.01;100.00;103721.91;4954543;29;20047;-80
2021/12/17 12:57:31;;;;;;;30.48;9.15;;;;;;;8.03;100.00;103709.13;4954968;28;20043;-81
2021/12/17 13:00:01;;;;;;;26.95;8.77;;;;;;;8.02;100.00;103719.16;4956477;29;20031;-80
2021/12/17 13:02:27;;;;;;;29.13;9.07;;;;;;;7.93;100.00;103713.00;4971136;28;20527;-81
2021/12/17 13:04:57;;;;;;;25.50;8.85;;;;;;;7.97;100.00;103718.34;4956616;28;20039;-81
2021/12/17 13:07:38;;;;;;;23.23;8.65;;;;;;;8.00;100.00;103723.75;4954984;29;20039;-81
2021/12/17 13:10:10;;;;;;;27.77;9.25;;;;;;;8.02;100.00;103719.16;4953400;29;20039;-81
2021/12/17 13:12:37;;;;;;;25.73;8.25;;;;;;;8.00;100.00;103715.56;4957935;29;20463;-81
2021/12/17 13:15:38;;;;;;;19.83;7.72;;;;;;;8.04;100.00;103721.84;4957520;28;20451;-80
2021/12/17 13:21:16;;;;;;;21.55;7.93;;;;;;;8.02;100.00;103713.69;4953746;29;20395;-81
2021/12/17 13:23:48;;;;;;;22.48;8.10;;;;;;;8.10;100.00;103705.34;4960549;29;20035;-81
2021/12/17 13:26:15;;;;;;;20.60;7.22;;;;;;;8.08;100.00;103701.72;4970966;28;20498;-81
2021/12/17 13:29:14;;;;;;;16.70;7.07;;;;;;;8.16;100.00;103707.00;4944150;29;20121;-81
2021/12/17 13:32:06;;;;;;;22.60;8.07;;;;;;;8.12;100.00;103706.19;4959767;29;20054;-81
2021/12/17 13:34:36;;;;;;;14.07;5.68;;;;;;;8.18;100.00;103706.06;4959282;29;20031;-81
2021/12/17 13:37:11;;;;;;;14.18;6.18;;;;;;;8.09;100.00;103698.97;4959181;29;20027;-80
2021/12/17 13:39:45;;;;;;;16.20;6.05;;;;;;;8.05;100.00;103704.50;4946854;28;20035;-81
2021/12/17 13:42:14;;;;;;;13.55;5.88;;;;;;;8.08;100.00;103705.38;4970070;28;20034;-81
2021/12/17 13:44:46;;;;;;;10.95;5.15;;;;;;;8.14;100.00;103706.16;4960119;29;20403;-81
2021/12/17 13:47:28;;;;;;;11.27;5.47;;;;;;;7.99;100.00;103708.28;4974863;28;20110;-82
2021/12/17 13:50:05;;;;;;;12.40;4.90;;;;;;;8.01;100.00;103703.69;4959968;28;20043;-81
2021/12/17 13:52:32;;;;;;;10.88;4.32;;;;;;;8.03;100.00;103692.75;4942071;29;20078;-81
2021/12/17 13:55:00;;;;;;;15.18;5.05;;;;;;;8.02;100.00;103710.97;4959664;28;20051;-81
2021/12/17 13:57:29;;;;;;;8.07;4.50;;;;;;;7.96;100.00;103711.09;4943701;28;20058;-81
2021/12/17 14:00:09;;;;;;;10.05;3.53;;;;;;;7.94;100.00;103707.50;4962079;28;20074;-80
2021/12/17 14:02:36;;;;;;;5.78;2.75;;;;;;;8.03;100.00;103712.72;4958737;28;20035;-79
2021/12/17 14:05:06;;;;;;;7.57;3.10;;;;;;;8.12;100.00;103710.72;4971326;28;20040;-81
2021/12/17 14:07:34;;;;;;;8.23;3.58;;;;;;;8.06;100.00;103709.94;4957120;29;20031;-80
2021/12/17 14:10:20;;;;;;;7.35;3.13;;;;;;;8.11;100.00;103715.31;4959835;29;20043;-79
2021/12/17 14:12:46;;;;;;;6.13;3.05;;;;;;;8.06;100.00;103718.13;4952367;29;20046;-80